Portada
METAR-TAF:

METAR-TAF

Aeroports :

Colombo, Sri Lanka

latitud: 07-10N, longitud: 079-53E, altitud: 8 m

Observació

L'informe es va fer fa 1 hora i 17 minuts, a les 12:10 UTC
Vent 10 kt del Nord/Nord-Est, variant entre Nord/Nord-Oest i Est/Nord-Est
Temperatura 30°C
Humitat 70%
Pressió 1009 hPa
Visibilitat 10 km o més
Núvols disperses a una alçada de 1800 ft
Escasses núvols a una alçada de 2000 ft, Cumulonimbus.

METAR: VCBI 171210Z 02010KT 340V060 9999 SCT018 FEW020CB 30/24 Q1009 NOSIG RMK SE

Hora: 18:57 (13:27 UTC)

Pronòstic

L'informe es va fer fa 2 hores i 27 minuts, a les 11:00 UTC
Pronòstic vàlid del 17 a les 12 UTC al 18 a les 18 UTC
Vent 8 kt del Nord/Nord-Est
Visibilitat 10 km o més
Escasses núvols a una alçada de 2000 ft
Temporalment
l' 18 a les 00 UTC al 18 a les 02 UTC
Visibilitat: 6000 m

TAF: VCBI 171100Z 1712/1818 03008KT 9999 FEW020 TX34/1808Z TN24/1800Z TEMPO 1800/1802 6000

Observacions i pronòstics meteorològics de més de 4000 aeroports (METAR i TAF).

Les estacions disponibles són els punts grocs i vermells al mapa.

Posi el ratolí al punt desitjat per veure el nom de l'estació.

Feu clic per veure les observacions i els pronòstics meteorològics.

Per canviar el mapa: feu clic els botons verds amb una creu de color negre per apropar; al botó verd amb un guió per allunyar la imatge; o en les fletxes verdes per a mapes adjacents.


METAR-TAF: